Etusivu
METAR-TAF:

METAR-TAF

Lentoasemat :

Seinäjoen lentoasema

Seinäjoki-Ilmajoki, Suomi

Leveyspiiri: 62-41-37N, Pituuspiiri: 022-49-55E, korkeus merenpinnasta: 91 m

Tämänhetkinen sää

Tämä raportti tehtiin 10 minuuttia sitten, kello 21.20 UTC
tyyntä
Lämpötila 2°C
Kosteus 87%
Ilmanpaine 1026 hPa
Näkyvyys 10 km tai enemmän
ei pilviä alle 1500 m:ssä eikä cumulonimbus-pilviä

METAR: EFSI 242120Z AUTO 00000KT CAVOK 02/M00 Q1026

Aika: 00:30 (21:30 UTC)


TAF: puuttuu

Säähavainnot ja -ennusteet yli 4000 lentoasemalta (METAR- ja TAF-raportit).

Käytössä olevat sääasemat on merkitty karttaan keltaisilla ja punaisilla pisteillä.

Aseta hiiri pisteen päälle nähdäksesi sääaseman nimen.

Klikkaa sitten nähdäksesi säähavainnot ja -ennusteet.

Kartan vaihtaminen: klikkaa mustalla rastilla varustettuja vihreitä pisteitä, niin voit zoomata sisään; viivalla varustettua vihreää pistettä, niin voit zoomata ulos tai vihreitä nuolia, niin pääset viereisille kartoille.


METAR-TAF: